sensor_id;sensor_type;location;lat;lon;timestamp;P1;durP1;ratioP1;P2;durP2;ratioP2
42760;SDS011;31672;47.638;19.026;2023-07-20T00:04:22;4.70;;;2.40;;
42760;SDS011;31672;47.638;19.026;2023-07-20T00:09:26;6.38;;;2.58;;
42760;SDS011;31672;47.638;19.026;2023-07-20T00:14:30;4.72;;;2.30;;
42760;SDS011;31672;47.638;19.026;2023-07-20T00:19:35;4.97;;;2.00;;
42760;SDS011;31672;47.638;19.026;2023-07-20T00:24:38;5.03;;;2.45;;
42760;SDS011;31672;47.638;19.026;2023-07-20T00:29:42;9.02;;;2.67;;
42760;SDS011;31672;47.638;19.026;2023-07-20T00:34:46;6.05;;;2.83;;
42760;SDS011;31672;47.638;19.026;2023-07-20T00:39:50;4.65;;;2.42;;
42760;SDS011;31672;47.638;19.026;2023-07-20T00:44:55;6.55;;;2.25;;
42760;SDS011;31672;47.638;19.026;2023-07-20T00:49:59;6.60;;;2.60;;
42760;SDS011;31672;47.638;19.026;2023-07-20T00:55:05;8.52;;;2.15;;
42760;SDS011;31672;47.638;19.026;2023-07-20T01:00:10;4.40;;;2.65;;
42760;SDS011;31672;47.638;19.026;2023-07-20T01:05:14;7.38;;;3.05;;
42760;SDS011;31672;47.638;19.026;2023-07-20T01:15:37;5.10;;;2.55;;
42760;SDS011;31672;47.638;19.026;2023-07-20T01:20:41;5.50;;;2.60;;
42760;SDS011;31672;47.638;19.026;2023-07-20T01:31:36;6.97;;;2.78;;
42760;SDS011;31672;47.638;19.026;2023-07-20T01:36:41;4.78;;;2.60;;
42760;SDS011;31672;47.638;19.026;2023-07-20T01:41:47;6.32;;;2.55;;
42760;SDS011;31672;47.638;19.026;2023-07-20T01:46:50;3.58;;;2.05;;
42760;SDS011;31672;47.638;19.026;2023-07-20T01:51:54;5.90;;;2.45;;
42760;SDS011;31672;47.638;19.026;2023-07-20T01:56:58;7.88;;;2.60;;
42760;SDS011;31672;47.638;19.026;2023-07-20T02:02:01;3.28;;;2.05;;
42760;SDS011;31672;47.638;19.026;2023-07-20T02:07:05;8.65;;;2.08;;
42760;SDS011;31672;47.638;19.026;2023-07-20T02:12:09;4.68;;;2.10;;
42760;SDS011;31672;47.638;19.026;2023-07-20T02:17:13;3.58;;;2.17;;
42760;SDS011;31672;47.638;19.026;2023-07-20T02:22:17;6.40;;;2.10;;
42760;SDS011;31672;47.638;19.026;2023-07-20T02:27:22;3.75;;;2.33;;
42760;SDS011;31672;47.638;19.026;2023-07-20T02:32:25;4.13;;;2.33;;
42760;SDS011;31672;47.638;19.026;2023-07-20T02:37:29;4.55;;;2.70;;
42760;SDS011;31672;47.638;19.026;2023-07-20T02:42:33;4.50;;;2.13;;
42760;SDS011;31672;47.638;19.026;2023-07-20T02:47:36;4.20;;;2.63;;
42760;SDS011;31672;47.638;19.026;2023-07-20T02:52:40;4.18;;;2.47;;
42760;SDS011;31672;47.638;19.026;2023-07-20T02:57:44;5.28;;;2.67;;
42760;SDS011;31672;47.638;19.026;2023-07-20T03:02:48;3.90;;;2.33;;
42760;SDS011;31672;47.638;19.026;2023-07-20T03:07:55;5.13;;;2.30;;
42760;SDS011;31672;47.638;19.026;2023-07-20T03:12:59;4.95;;;2.90;;
42760;SDS011;31672;47.638;19.026;2023-07-20T03:23:31;5.43;;;2.72;;
42760;SDS011;31672;47.638;19.026;2023-07-20T03:28:35;4.30;;;2.63;;
42760;SDS011;31672;47.638;19.026;2023-07-20T03:33:41;5.65;;;2.65;;
42760;SDS011;31672;47.638;19.026;2023-07-20T03:38:45;5.70;;;3.10;;
42760;SDS011;31672;47.638;19.026;2023-07-20T03:43:48;7.88;;;3.08;;
42760;SDS011;31672;47.638;19.026;2023-07-20T03:48:53;6.22;;;2.72;;
42760;SDS011;31672;47.638;19.026;2023-07-20T03:53:58;3.63;;;2.40;;
42760;SDS011;31672;47.638;19.026;2023-07-20T03:59:02;5.47;;;2.78;;
42760;SDS011;31672;47.638;19.026;2023-07-20T04:04:06;6.18;;;2.70;;
42760;SDS011;31672;47.638;19.026;2023-07-20T04:09:11;6.43;;;2.92;;
42760;SDS011;31672;47.638;19.026;2023-07-20T04:14:16;4.68;;;2.33;;
42760;SDS011;31672;47.638;19.026;2023-07-20T04:19:20;6.32;;;2.47;;
42760;SDS011;31672;47.638;19.026;2023-07-20T04:24:23;6.13;;;2.92;;
42760;SDS011;31672;47.638;19.026;2023-07-20T04:29:27;6.20;;;3.08;;
42760;SDS011;31672;47.638;19.026;2023-07-20T04:34:31;6.38;;;3.22;;
42760;SDS011;31672;47.638;19.026;2023-07-20T04:39:35;8.38;;;3.50;;
42760;SDS011;31672;47.638;19.026;2023-07-20T04:44:39;7.20;;;2.92;;
42760;SDS011;31672;47.638;19.026;2023-07-20T04:49:42;7.32;;;3.10;;
42760;SDS011;31672;47.638;19.026;2023-07-20T04:54:46;7.22;;;3.40;;
42760;SDS011;31672;47.638;19.026;2023-07-20T04:59:49;3.92;;;2.90;;
42760;SDS011;31672;47.638;19.026;2023-07-20T05:04:53;4.63;;;2.72;;
42760;SDS011;31672;47.638;19.026;2023-07-20T05:09:57;4.78;;;2.88;;
42760;SDS011;31672;47.638;19.026;2023-07-20T05:15:02;5.32;;;2.80;;
42760;SDS011;31672;47.638;19.026;2023-07-20T05:20:06;5.70;;;2.72;;
42760;SDS011;31672;47.638;19.026;2023-07-20T05:25:13;5.43;;;2.75;;
42760;SDS011;31672;47.638;19.026;2023-07-20T05:30:17;3.70;;;2.70;;
42760;SDS011;31672;47.638;19.026;2023-07-20T05:35:21;3.78;;;2.47;;
42760;SDS011;31672;47.638;19.026;2023-07-20T05:40:25;4.38;;;2.60;;
42760;SDS011;31672;47.638;19.026;2023-07-20T05:45:29;5.22;;;2.85;;
42760;SDS011;31672;47.638;19.026;2023-07-20T05:50:32;4.97;;;2.78;;
42760;SDS011;31672;47.638;19.026;2023-07-20T05:55:36;4.05;;;2.92;;
42760;SDS011;31672;47.638;19.026;2023-07-20T06:00:39;7.35;;;3.83;;
42760;SDS011;31672;47.638;19.026;2023-07-20T06:05:43;9.20;;;3.03;;
42760;SDS011;31672;47.638;19.026;2023-07-20T06:10:49;4.15;;;2.67;;
42760;SDS011;31672;47.638;19.026;2023-07-20T06:15:56;5.20;;;2.50;;
42760;SDS011;31672;47.638;19.026;2023-07-20T06:21:00;7.60;;;2.75;;
42760;SDS011;31672;47.638;19.026;2023-07-20T06:26:05;5.82;;;3.13;;
42760;SDS011;31672;47.638;19.026;2023-07-20T06:31:10;6.95;;;3.03;;
42760;SDS011;31672;47.638;19.026;2023-07-20T06:36:17;7.07;;;2.65;;
42760;SDS011;31672;47.638;19.026;2023-07-20T06:41:21;5.88;;;2.67;;
42760;SDS011;31672;47.638;19.026;2023-07-20T06:46:29;3.50;;;2.63;;
42760;SDS011;31672;47.638;19.026;2023-07-20T06:51:32;5.53;;;3.17;;
42760;SDS011;31672;47.638;19.026;2023-07-20T06:56:36;5.55;;;2.63;;
42760;SDS011;31672;47.638;19.026;2023-07-20T07:01:40;4.22;;;2.33;;
42760;SDS011;31672;47.638;19.026;2023-07-20T07:06:43;4.78;;;2.75;;
42760;SDS011;31672;47.638;19.026;2023-07-20T07:11:47;5.78;;;2.55;;
42760;SDS011;31672;47.638;19.026;2023-07-20T07:16:51;5.85;;;2.80;;
42760;SDS011;31672;47.638;19.026;2023-07-20T07:21:59;6.38;;;2.78;;
42760;SDS011;31672;47.638;19.026;2023-07-20T07:27:04;7.22;;;2.78;;
42760;SDS011;31672;47.638;19.026;2023-07-20T07:32:08;4.45;;;2.30;;
42760;SDS011;31672;47.638;19.026;2023-07-20T07:37:13;6.07;;;2.15;;
42760;SDS011;31672;47.638;19.026;2023-07-20T07:42:17;8.98;;;2.88;;
42760;SDS011;31672;47.638;19.026;2023-07-20T07:47:21;5.85;;;2.38;;
42760;SDS011;31672;47.638;19.026;2023-07-20T07:52:25;6.20;;;2.60;;
42760;SDS011;31672;47.638;19.026;2023-07-20T07:57:29;6.32;;;2.40;;
42760;SDS011;31672;47.638;19.026;2023-07-20T08:02:32;5.65;;;2.42;;
42760;SDS011;31672;47.638;19.026;2023-07-20T08:07:36;4.03;;;2.45;;
42760;SDS011;31672;47.638;19.026;2023-07-20T08:12:40;3.45;;;2.38;;
42760;SDS011;31672;47.638;19.026;2023-07-20T08:17:44;4.70;;;2.13;;
42760;SDS011;31672;47.638;19.026;2023-07-20T08:22:47;3.63;;;2.50;;
42760;SDS011;31672;47.638;19.026;2023-07-20T08:27:51;5.13;;;2.10;;
42760;SDS011;31672;47.638;19.026;2023-07-20T08:32:55;4.60;;;2.58;;
42760;SDS011;31672;47.638;19.026;2023-07-20T08:37:58;7.90;;;2.17;;
42760;SDS011;31672;47.638;19.026;2023-07-20T08:43:05;4.45;;;2.00;;
42760;SDS011;31672;47.638;19.026;2023-07-20T08:48:10;5.30;;;2.35;;
42760;SDS011;31672;47.638;19.026;2023-07-20T08:53:15;6.03;;;2.58;;
42760;SDS011;31672;47.638;19.026;2023-07-20T08:58:19;4.78;;;2.17;;
42760;SDS011;31672;47.638;19.026;2023-07-20T09:03:23;4.47;;;1.80;;
42760;SDS011;31672;47.638;19.026;2023-07-20T09:08:27;5.53;;;2.00;;
42760;SDS011;31672;47.638;19.026;2023-07-20T09:13:34;6.53;;;2.30;;
42760;SDS011;31672;47.638;19.026;2023-07-20T09:18:38;4.65;;;2.03;;
42760;SDS011;31672;47.638;19.026;2023-07-20T09:23:42;4.57;;;2.00;;
42760;SDS011;31672;47.638;19.026;2023-07-20T09:28:49;7.15;;;2.78;;
42760;SDS011;31672;47.638;19.026;2023-07-20T09:33:56;2.28;;;1.60;;
42760;SDS011;31672;47.638;19.026;2023-07-20T09:39:04;4.57;;;2.13;;
42760;SDS011;31672;47.638;19.026;2023-07-20T09:44:07;3.92;;;2.00;;
42760;SDS011;31672;47.638;19.026;2023-07-20T09:49:19;4.85;;;1.90;;
42760;SDS011;31672;47.638;19.026;2023-07-20T09:54:26;3.40;;;2.15;;
42760;SDS011;31672;47.638;19.026;2023-07-20T09:59:31;2.85;;;1.55;;
42760;SDS011;31672;47.638;19.026;2023-07-20T10:04:35;7.32;;;1.90;;
42760;SDS011;31672;47.638;19.026;2023-07-20T10:09:40;4.32;;;1.70;;
42760;SDS011;31672;47.638;19.026;2023-07-20T10:14:58;3.97;;;1.63;;
42760;SDS011;31672;47.638;19.026;2023-07-20T10:20:11;6.90;;;1.77;;
42760;SDS011;31672;47.638;19.026;2023-07-20T10:25:16;2.60;;;1.40;;
42760;SDS011;31672;47.638;19.026;2023-07-20T10:30:22;2.35;;;1.50;;
42760;SDS011;31672;47.638;19.026;2023-07-20T10:35:25;3.67;;;1.40;;
42760;SDS011;31672;47.638;19.026;2023-07-20T10:40:38;4.50;;;1.70;;
42760;SDS011;31672;47.638;19.026;2023-07-20T10:45:52;3.47;;;1.63;;
42760;SDS011;31672;47.638;19.026;2023-07-20T10:51:11;5.22;;;1.60;;
42760;SDS011;31672;47.638;19.026;2023-07-20T10:56:20;4.03;;;1.63;;
42760;SDS011;31672;47.638;19.026;2023-07-20T11:06:36;6.88;;;1.40;;
42760;SDS011;31672;47.638;19.026;2023-07-20T11:11:47;5.40;;;1.52;;
42760;SDS011;31672;47.638;19.026;2023-07-20T11:16:52;3.67;;;1.50;;
42760;SDS011;31672;47.638;19.026;2023-07-20T11:21:56;4.65;;;1.70;;
42760;SDS011;31672;47.638;19.026;2023-07-20T11:27:07;4.03;;;1.58;;
42760;SDS011;31672;47.638;19.026;2023-07-20T11:32:11;2.53;;;1.50;;
42760;SDS011;31672;47.638;19.026;2023-07-20T11:37:15;5.43;;;1.60;;
42760;SDS011;31672;47.638;19.026;2023-07-20T11:42:20;6.88;;;2.25;;
42760;SDS011;31672;47.638;19.026;2023-07-20T11:47:28;2.33;;;1.40;;
42760;SDS011;31672;47.638;19.026;2023-07-20T11:52:33;3.15;;;1.55;;
42760;SDS011;31672;47.638;19.026;2023-07-20T11:57:37;5.45;;;1.60;;
42760;SDS011;31672;47.638;19.026;2023-07-20T12:02:42;4.18;;;1.80;;
42760;SDS011;31672;47.638;19.026;2023-07-20T12:07:46;7.10;;;1.70;;
42760;SDS011;31672;47.638;19.026;2023-07-20T12:12:53;6.28;;;1.50;;
42760;SDS011;31672;47.638;19.026;2023-07-20T12:17:59;4.15;;;1.20;;
42760;SDS011;31672;47.638;19.026;2023-07-20T12:23:08;3.63;;;1.60;;
42760;SDS011;31672;47.638;19.026;2023-07-20T12:28:19;3.95;;;1.63;;
42760;SDS011;31672;47.638;19.026;2023-07-20T12:33:24;3.55;;;1.50;;
42760;SDS011;31672;47.638;19.026;2023-07-20T12:38:27;3.08;;;1.48;;
42760;SDS011;31672;47.638;19.026;2023-07-20T12:43:33;3.55;;;1.48;;
42760;SDS011;31672;47.638;19.026;2023-07-20T12:48:37;4.47;;;1.40;;
42760;SDS011;31672;47.638;19.026;2023-07-20T12:53:43;3.83;;;1.45;;
42760;SDS011;31672;47.638;19.026;2023-07-20T12:58:47;2.75;;;1.17;;
42760;SDS011;31672;47.638;19.026;2023-07-20T13:03:52;3.83;;;1.38;;
42760;SDS011;31672;47.638;19.026;2023-07-20T13:09:00;2.37;;;1.50;;
42760;SDS011;31672;47.638;19.026;2023-07-20T13:14:04;5.80;;;1.75;;
42760;SDS011;31672;47.638;19.026;2023-07-20T13:19:08;1.95;;;1.23;;
42760;SDS011;31672;47.638;19.026;2023-07-20T13:24:12;6.57;;;1.60;;
42760;SDS011;31672;47.638;19.026;2023-07-20T13:29:15;3.20;;;1.40;;
42760;SDS011;31672;47.638;19.026;2023-07-20T13:34:20;3.97;;;1.30;;
42760;SDS011;31672;47.638;19.026;2023-07-20T13:39:24;1.95;;;1.23;;
42760;SDS011;31672;47.638;19.026;2023-07-20T13:44:29;1.83;;;1.25;;
42760;SDS011;31672;47.638;19.026;2023-07-20T13:49:36;4.10;;;1.23;;
42760;SDS011;31672;47.638;19.026;2023-07-20T13:54:49;1.45;;;0.98;;
42760;SDS011;31672;47.638;19.026;2023-07-20T13:59:57;2.38;;;1.33;;
42760;SDS011;31672;47.638;19.026;2023-07-20T14:05:04;4.03;;;1.13;;
42760;SDS011;31672;47.638;19.026;2023-07-20T14:10:10;6.13;;;1.65;;
42760;SDS011;31672;47.638;19.026;2023-07-20T14:15:17;2.55;;;1.20;;
42760;SDS011;31672;47.638;19.026;2023-07-20T14:20:21;1.83;;;1.10;;
42760;SDS011;31672;47.638;19.026;2023-07-20T14:25:25;2.50;;;1.30;;
42760;SDS011;31672;47.638;19.026;2023-07-20T14:30:31;1.90;;;1.20;;
42760;SDS011;31672;47.638;19.026;2023-07-20T14:35:35;1.60;;;1.23;;
42760;SDS011;31672;47.638;19.026;2023-07-20T14:40:38;3.67;;;1.50;;
42760;SDS011;31672;47.638;19.026;2023-07-20T14:45:42;2.40;;;1.52;;
42760;SDS011;31672;47.638;19.026;2023-07-20T14:50:46;4.68;;;1.20;;
42760;SDS011;31672;47.638;19.026;2023-07-20T14:55:50;3.38;;;1.23;;
42760;SDS011;31672;47.638;19.026;2023-07-20T15:00:53;2.30;;;1.23;;
42760;SDS011;31672;47.638;19.026;2023-07-20T15:05:57;2.25;;;1.10;;
42760;SDS011;31672;47.638;19.026;2023-07-20T15:11:01;3.33;;;1.00;;
42760;SDS011;31672;47.638;19.026;2023-07-20T15:16:05;3.10;;;1.13;;
42760;SDS011;31672;47.638;19.026;2023-07-20T15:21:09;2.10;;;1.17;;
42760;SDS011;31672;47.638;19.026;2023-07-20T15:26:12;1.17;;;0.90;;
42760;SDS011;31672;47.638;19.026;2023-07-20T15:31:16;3.08;;;1.02;;
42760;SDS011;31672;47.638;19.026;2023-07-20T15:36:21;3.83;;;1.23;;
42760;SDS011;31672;47.638;19.026;2023-07-20T15:41:24;2.88;;;1.20;;
42760;SDS011;31672;47.638;19.026;2023-07-20T15:51:44;3.28;;;1.13;;
42760;SDS011;31672;47.638;19.026;2023-07-20T15:56:50;2.13;;;0.98;;
42760;SDS011;31672;47.638;19.026;2023-07-20T16:01:53;3.63;;;1.17;;
42760;SDS011;31672;47.638;19.026;2023-07-20T16:06:57;4.10;;;1.10;;
42760;SDS011;31672;47.638;19.026;2023-07-20T16:12:01;3.92;;;1.30;;
42760;SDS011;31672;47.638;19.026;2023-07-20T16:17:06;2.80;;;1.20;;
42760;SDS011;31672;47.638;19.026;2023-07-20T16:22:10;1.63;;;1.02;;
42760;SDS011;31672;47.638;19.026;2023-07-20T16:27:15;2.60;;;1.20;;
42760;SDS011;31672;47.638;19.026;2023-07-20T16:32:20;3.20;;;1.13;;
42760;SDS011;31672;47.638;19.026;2023-07-20T16:37:23;4.93;;;1.20;;
42760;SDS011;31672;47.638;19.026;2023-07-20T16:42:29;3.67;;;1.20;;
42760;SDS011;31672;47.638;19.026;2023-07-20T16:47:37;1.70;;;1.10;;
42760;SDS011;31672;47.638;19.026;2023-07-20T16:52:41;2.67;;;1.10;;
42760;SDS011;31672;47.638;19.026;2023-07-20T16:57:45;2.95;;;1.58;;
42760;SDS011;31672;47.638;19.026;2023-07-20T17:02:49;2.38;;;1.10;;
42760;SDS011;31672;47.638;19.026;2023-07-20T17:07:53;2.80;;;1.60;;
42760;SDS011;31672;47.638;19.026;2023-07-20T17:12:58;4.30;;;1.05;;
42760;SDS011;31672;47.638;19.026;2023-07-20T17:18:01;2.22;;;1.30;;
42760;SDS011;31672;47.638;19.026;2023-07-20T17:23:05;4.82;;;1.27;;
42760;SDS011;31672;47.638;19.026;2023-07-20T17:28:09;3.67;;;1.13;;
42760;SDS011;31672;47.638;19.026;2023-07-20T17:33:16;2.08;;;1.10;;
42760;SDS011;31672;47.638;19.026;2023-07-20T17:38:20;4.90;;;1.40;;
42760;SDS011;31672;47.638;19.026;2023-07-20T17:43:29;3.55;;;1.40;;
42760;SDS011;31672;47.638;19.026;2023-07-20T17:48:34;4.75;;;1.30;;
42760;SDS011;31672;47.638;19.026;2023-07-20T17:53:38;2.92;;;1.20;;
42760;SDS011;31672;47.638;19.026;2023-07-20T17:58:41;3.67;;;1.20;;
42760;SDS011;31672;47.638;19.026;2023-07-20T18:03:45;7.43;;;1.25;;
42760;SDS011;31672;47.638;19.026;2023-07-20T18:08:49;5.20;;;1.50;;
42760;SDS011;31672;47.638;19.026;2023-07-20T18:13:52;3.28;;;1.75;;
42760;SDS011;31672;47.638;19.026;2023-07-20T18:18:56;3.92;;;1.67;;
42760;SDS011;31672;47.638;19.026;2023-07-20T18:23:59;2.42;;;1.40;;
42760;SDS011;31672;47.638;19.026;2023-07-20T18:29:03;2.60;;;1.50;;
42760;SDS011;31672;47.638;19.026;2023-07-20T18:34:07;6.43;;;1.92;;
42760;SDS011;31672;47.638;19.026;2023-07-20T18:39:11;2.63;;;1.67;;
42760;SDS011;31672;47.638;19.026;2023-07-20T18:44:14;3.85;;;1.30;;
42760;SDS011;31672;47.638;19.026;2023-07-20T18:49:18;3.95;;;1.40;;
42760;SDS011;31672;47.638;19.026;2023-07-20T18:54:22;3.35;;;1.55;;
42760;SDS011;31672;47.638;19.026;2023-07-20T18:59:25;2.47;;;1.60;;
42760;SDS011;31672;47.638;19.026;2023-07-20T19:04:29;2.15;;;1.23;;
42760;SDS011;31672;47.638;19.026;2023-07-20T19:09:33;8.07;;;1.40;;
42760;SDS011;31672;47.638;19.026;2023-07-20T19:14:36;5.43;;;1.30;;
42760;SDS011;31672;47.638;19.026;2023-07-20T19:19:40;2.97;;;1.40;;
42760;SDS011;31672;47.638;19.026;2023-07-20T19:24:44;2.42;;;1.55;;
42760;SDS011;31672;47.638;19.026;2023-07-20T19:29:50;2.22;;;1.17;;
42760;SDS011;31672;47.638;19.026;2023-07-20T19:34:54;2.13;;;1.27;;
42760;SDS011;31672;47.638;19.026;2023-07-20T19:39:57;2.25;;;1.50;;
42760;SDS011;31672;47.638;19.026;2023-07-20T19:45:01;4.25;;;1.58;;
42760;SDS011;31672;47.638;19.026;2023-07-20T19:50:05;4.53;;;1.30;;
42760;SDS011;31672;47.638;19.026;2023-07-20T19:55:10;2.05;;;1.30;;
42760;SDS011;31672;47.638;19.026;2023-07-20T20:00:13;2.35;;;1.70;;
42760;SDS011;31672;47.638;19.026;2023-07-20T20:05:40;4.50;;;1.77;;
42760;SDS011;31672;47.638;19.026;2023-07-20T20:10:45;4.43;;;1.85;;
42760;SDS011;31672;47.638;19.026;2023-07-20T20:15:54;3.70;;;1.98;;
42760;SDS011;31672;47.638;19.026;2023-07-20T20:20:57;2.22;;;1.52;;
42760;SDS011;31672;47.638;19.026;2023-07-20T20:26:01;5.80;;;1.80;;
42760;SDS011;31672;47.638;19.026;2023-07-20T20:31:05;3.22;;;2.00;;
42760;SDS011;31672;47.638;19.026;2023-07-20T20:36:09;5.00;;;1.40;;
42760;SDS011;31672;47.638;19.026;2023-07-20T20:41:13;4.03;;;1.60;;
42760;SDS011;31672;47.638;19.026;2023-07-20T20:46:17;5.13;;;1.48;;
42760;SDS011;31672;47.638;19.026;2023-07-20T20:51:23;5.88;;;1.90;;
42760;SDS011;31672;47.638;19.026;2023-07-20T20:56:27;3.78;;;1.58;;
42760;SDS011;31672;47.638;19.026;2023-07-20T21:01:34;3.42;;;1.80;;
42760;SDS011;31672;47.638;19.026;2023-07-20T21:06:37;8.77;;;1.85;;
42760;SDS011;31672;47.638;19.026;2023-07-20T21:11:41;3.50;;;1.67;;
42760;SDS011;31672;47.638;19.026;2023-07-20T21:16:45;8.20;;;2.10;;
42760;SDS011;31672;47.638;19.026;2023-07-20T21:21:48;3.33;;;1.90;;
42760;SDS011;31672;47.638;19.026;2023-07-20T21:26:52;5.47;;;1.70;;
42760;SDS011;31672;47.638;19.026;2023-07-20T21:31:55;2.67;;;1.30;;
42760;SDS011;31672;47.638;19.026;2023-07-20T21:36:59;1.80;;;1.20;;
42760;SDS011;31672;47.638;19.026;2023-07-20T21:42:02;3.25;;;1.30;;
42760;SDS011;31672;47.638;19.026;2023-07-20T21:47:06;2.50;;;1.20;;
42760;SDS011;31672;47.638;19.026;2023-07-20T21:52:10;2.33;;;1.30;;
42760;SDS011;31672;47.638;19.026;2023-07-20T21:57:14;2.70;;;1.48;;
42760;SDS011;31672;47.638;19.026;2023-07-20T22:02:17;3.15;;;1.10;;
42760;SDS011;31672;47.638;19.026;2023-07-20T22:07:21;1.92;;;1.10;;
42760;SDS011;31672;47.638;19.026;2023-07-20T22:12:25;2.28;;;1.50;;
42760;SDS011;31672;47.638;19.026;2023-07-20T22:17:29;1.85;;;1.27;;
42760;SDS011;31672;47.638;19.026;2023-07-20T22:22:32;1.88;;;1.08;;
42760;SDS011;31672;47.638;19.026;2023-07-20T22:27:36;5.82;;;2.13;;
42760;SDS011;31672;47.638;19.026;2023-07-20T22:32:41;2.92;;;1.40;;
42760;SDS011;31672;47.638;19.026;2023-07-20T22:37:46;2.47;;;1.45;;
42760;SDS011;31672;47.638;19.026;2023-07-20T22:42:52;2.28;;;1.20;;
42760;SDS011;31672;47.638;19.026;2023-07-20T22:47:56;2.13;;;1.20;;
42760;SDS011;31672;47.638;19.026;2023-07-20T22:52:59;1.88;;;1.20;;
42760;SDS011;31672;47.638;19.026;2023-07-20T22:58:03;2.10;;;1.08;;
42760;SDS011;31672;47.638;19.026;2023-07-20T23:03:06;3.20;;;1.17;;
42760;SDS011;31672;47.638;19.026;2023-07-20T23:08:10;1.80;;;0.90;;
42760;SDS011;31672;47.638;19.026;2023-07-20T23:13:14;1.23;;;0.77;;
42760;SDS011;31672;47.638;19.026;2023-07-20T23:18:17;1.98;;;1.05;;
42760;SDS011;31672;47.638;19.026;2023-07-20T23:23:21;2.00;;;1.10;;
42760;SDS011;31672;47.638;19.026;2023-07-20T23:28:25;1.52;;;0.95;;
42760;SDS011;31672;47.638;19.026;2023-07-20T23:33:28;3.13;;;1.10;;
42760;SDS011;31672;47.638;19.026;2023-07-20T23:38:32;2.10;;;1.23;;
42760;SDS011;31672;47.638;19.026;2023-07-20T23:43:42;3.57;;;1.17;;
42760;SDS011;31672;47.638;19.026;2023-07-20T23:48:45;1.98;;;1.23;;
42760;SDS011;31672;47.638;19.026;2023-07-20T23:53:50;3.42;;;1.17;;
42760;SDS011;31672;47.638;19.026;2023-07-20T23:58:53;2.17;;;1.40;;
